Time;durP1;ratioP1;P1;durP2;ratioP2;P2;SDS_P1;SDS_P2;PMS_P1;PMS_P2;Temp;Humidity;BMP_temperature;BMP_pressure;BME280_temperature;BME280_humidity;BME280_pressure;Samples;Min_cycle;Max_cycle;Signal;HPM_P1;HPM_P2
2022/10/31 00:01:46;;;;;;;71.67;12.00;;;13.40;1.00;;;;;;5054988;28;20940;-73
2022/10/31 00:04:13;;;;;;;74.73;12.60;;;13.30;1.00;;;;;;5055083;28;20452;-73
2022/10/31 00:06:39;;;;;;;71.23;12.87;;;13.30;1.00;;;;;;5055223;28;20479;-73
2022/10/31 00:09:06;;;;;;;76.30;12.27;;;13.30;1.00;;;;;;5054288;28;20451;-74
2022/10/31 00:11:34;;;;;;;67.27;11.93;;;13.20;1.00;;;;;;5054709;28;20470;-74
2022/10/31 00:14:01;;;;;;;74.23;13.00;;;13.20;1.00;;;;;;5054967;28;20482;-74
2022/10/31 00:16:29;;;;;;;72.03;13.23;;;13.20;1.00;;;;;;5054640;28;20962;-74
2022/10/31 00:18:57;;;;;;;69.70;11.90;;;13.20;1.00;;;;;;5054244;28;20466;-73
2022/10/31 00:21:25;;;;;;;73.27;11.63;;;13.20;1.00;;;;;;5055053;28;20448;-73
2022/10/31 00:23:52;;;;;;;76.07;11.93;;;13.10;1.00;;;;;;5054784;28;20455;-73
2022/10/31 00:26:19;;;;;;;71.10;11.67;;;13.10;1.00;;;;;;5054806;28;20465;-73
2022/10/31 00:28:48;;;;;;;71.30;11.50;;;13.00;1.00;;;;;;5054023;28;20447;-73
2022/10/31 00:31:15;;;;;;;70.63;12.00;;;13.00;1.00;;;;;;5054361;28;20487;-73
2022/10/31 00:33:43;;;;;;;75.60;12.10;;;13.00;1.00;;;;;;5054278;28;20461;-73
2022/10/31 00:36:13;;;;;;;74.43;12.87;;;13.10;1.00;;;;;;5054411;28;20460;-73
2022/10/31 00:38:40;;;;;;;72.47;11.43;;;13.10;1.00;;;;;;5053522;28;20456;-73
2022/10/31 00:41:07;;;;;;;69.93;11.50;;;13.10;1.00;;;;;;5054131;28;20444;-73
2022/10/31 00:43:34;;;;;;;70.10;10.90;;;13.10;1.00;;;;;;5054322;28;20459;-73
2022/10/31 00:46:02;;;;;;;68.20;10.70;;;13.00;1.00;;;;;;5054043;28;20467;-73
2022/10/31 00:48:29;;;;;;;69.80;11.53;;;13.00;1.00;;;;;;5053752;28;20474;-73
2022/10/31 00:50:56;;;;;;;71.17;11.67;;;13.00;1.00;;;;;;5053270;28;20497;-73
2022/10/31 00:53:22;;;;;;;70.17;10.37;;;13.10;1.00;;;;;;5052908;28;20464;-73
2022/10/31 00:55:49;;;;;;;74.30;11.23;;;13.00;1.00;;;;;;5054100;28;20818;-73
2022/10/31 00:58:16;;;;;;;69.90;10.50;;;13.00;1.00;;;;;;5053890;28;20464;-73
2022/10/31 01:00:43;;;;;;;68.50;11.23;;;13.00;1.00;;;;;;5053301;28;20447;-73
2022/10/31 01:03:11;;;;;;;70.20;11.87;;;13.00;1.00;;;;;;5054030;28;20820;-74
2022/10/31 01:05:38;;;;;;;67.23;10.47;;;12.90;1.00;;;;;;5053764;28;20461;-74
2022/10/31 01:08:05;;;;;;;68.00;10.53;;;12.90;1.00;;;;;;5053501;28;20478;-73
2022/10/31 01:10:32;;;;;;;68.17;10.47;;;12.90;1.00;;;;;;5053113;28;20861;-73
2022/10/31 01:12:58;;;;;;;70.03;11.53;;;12.90;1.00;;;;;;5053786;28;20485;-74
2022/10/31 01:15:25;;;;;;;72.23;11.03;;;12.90;1.00;;;;;;5054020;28;20454;-73
2022/10/31 01:17:52;;;;;;;71.33;11.17;;;12.80;1.00;;;;;;5053602;28;20688;-74
2022/10/31 01:20:20;;;;;;;69.57;11.40;;;12.80;1.00;;;;;;5052683;28;20440;-73
2022/10/31 01:22:47;;;;;;;68.30;11.53;;;12.80;1.00;;;;;;5053638;28;20460;-73
2022/10/31 01:25:14;;;;;;;68.30;11.20;;;12.80;1.00;;;;;;5053546;28;20447;-73
2022/10/31 01:27:41;;;;;;;71.20;11.37;;;12.80;1.00;;;;;;5053302;28;20996;-73
2022/10/31 01:30:09;;;;;;;67.63;10.20;;;12.60;1.00;;;;;;5052568;28;20494;-73
2022/10/31 01:32:35;;;;;;;67.40;10.20;;;12.70;1.00;;;;;;5053358;28;20460;-73
2022/10/31 01:35:02;;;;;;;69.10;10.20;;;12.70;1.00;;;;;;5053063;28;20453;-73
2022/10/31 01:37:32;;;;;;;66.30;9.80;;;12.70;1.00;;;;;;5053128;28;21013;-74
2022/10/31 01:39:59;;;;;;;68.27;10.57;;;12.80;1.00;;;;;;5052389;28;20450;-74
2022/10/31 01:42:26;;;;;;;69.50;10.30;;;12.80;1.00;;;;;;5053174;28;20535;-73
2022/10/31 01:44:56;;;;;;;70.37;10.87;;;12.80;1.00;;;;;;5053174;28;21052;-73
2022/10/31 01:47:33;;;;;;;71.80;10.93;;;12.80;1.00;;;;;;5053464;28;20479;-73
2022/10/31 01:50:05;;;;;;;70.80;10.40;;;12.80;1.00;;;;;;5052352;28;20502;-73
2022/10/31 01:52:37;;;;;;;66.00;10.33;;;12.80;1.00;;;;;;5053068;28;20485;-74
2022/10/31 01:55:06;;;;;;;75.30;10.93;;;12.80;1.00;;;;;;5052943;28;20466;-73
2022/10/31 01:57:35;;;;;;;66.80;10.00;;;12.80;1.00;;;;;;5052600;28;21014;-73
2022/10/31 02:00:05;;;;;;;69.93;11.13;;;12.80;1.00;;;;;;5051862;28;20457;-73
2022/10/31 02:02:33;;;;;;;66.17;9.17;;;12.80;1.00;;;;;;5053373;28;20533;-73
2022/10/31 02:05:02;;;;;;;67.90;10.77;;;12.70;1.00;;;;;;5052439;28;20446;-73
2022/10/31 02:07:36;;;;;;;70.10;10.10;;;12.70;1.00;;;;;;5052567;28;20834;-74
2022/10/31 02:10:04;;;;;;;68.00;9.87;;;12.70;1.00;;;;;;5051694;28;20486;-74
2022/10/31 02:12:33;;;;;;;65.40;9.13;;;12.80;1.00;;;;;;5052448;28;20459;-73
2022/10/31 02:15:01;;;;;;;66.50;9.90;;;12.70;1.00;;;;;;5048767;28;20620;-73
2022/10/31 02:17:29;;;;;;;66.80;9.80;;;12.70;1.00;;;;;;5052410;28;20843;-73
2022/10/31 02:20:01;;;;;;;66.60;9.80;;;12.80;1.00;;;;;;5051558;28;20830;-74
2022/10/31 02:22:36;;;;;;;72.20;10.47;;;12.80;1.00;;;;;;5052574;28;20458;-74
2022/10/31 02:25:23;;;;;;;65.20;8.77;;;12.70;1.00;;;;;;5052447;28;20452;-73
2022/10/31 02:28:18;;;;;;;66.70;9.80;;;12.70;1.00;;;;;;5052291;28;20482;-73
2022/10/31 02:31:12;;;;;;;71.20;9.47;;;12.70;1.00;;;;;;5051432;28;20490;-74
2022/10/31 02:33:43;;;;;;;67.70;9.20;;;12.70;1.00;;;;;;5052035;28;20468;-74
2022/10/31 02:36:17;;;;;;;72.83;9.70;;;12.60;1.00;;;;;;5052148;28;21065;-73
2022/10/31 02:38:53;;;;;;;67.07;9.70;;;12.60;1.00;;;;;;5051229;28;20460;-72
2022/10/31 02:41:27;;;;;;;67.27;8.60;;;12.60;1.00;;;;;;5052217;28;20458;-73
2022/10/31 02:44:01;;;;;;;66.37;9.53;;;12.60;1.00;;;;;;5052181;28;20465;-73
2022/10/31 02:46:36;;;;;;;66.97;9.13;;;12.50;1.00;;;;;;5051977;28;20454;-73
2022/10/31 02:49:08;;;;;;;67.00;9.20;;;12.50;1.00;;;;;;5051288;28;20512;-73
2022/10/31 02:51:36;;;;;;;73.40;9.17;;;12.50;1.00;;;;;;5051760;28;20470;-73
2022/10/31 02:54:03;;;;;;;70.63;9.60;;;12.50;1.00;;;;;;5051959;28;20450;-73
2022/10/31 02:56:29;;;;;;;73.77;9.67;;;12.50;1.00;;;;;;5051992;28;20468;-73
2022/10/31 02:59:00;;;;;;;65.90;9.63;;;12.50;1.00;;;;;;5051119;28;20463;-73
2022/10/31 03:01:40;;;;;;;66.30;9.00;;;12.40;1.00;;;;;;5051859;28;20449;-73
2022/10/31 03:04:37;;;;;;;69.07;8.57;;;12.40;1.00;;;;;;5051960;28;20447;-73
2022/10/31 03:07:12;;;;;;;63.77;8.03;;;12.40;1.00;;;;;;5052014;28;20474;-73
2022/10/31 03:09:47;;;;;;;63.93;8.07;;;12.40;1.00;;;;;;5051009;28;20460;-73
2022/10/31 03:12:18;;;;;;;66.70;9.47;;;12.40;1.00;;;;;;5051495;28;21009;-73
2022/10/31 03:14:52;;;;;;;65.17;9.20;;;12.40;1.00;;;;;;5051877;28;20836;-73
2022/10/31 03:17:27;;;;;;;65.17;8.67;;;12.40;1.00;;;;;;5053502;28;20478;-73
2022/10/31 03:19:57;;;;;;;68.37;8.63;;;12.40;1.00;;;;;;5055142;28;20463;-73
2022/10/31 03:22:28;;;;;;;68.57;8.90;;;12.40;1.00;;;;;;5055754;28;20951;-73
2022/10/31 03:24:57;;;;;;;68.93;8.57;;;12.30;1.00;;;;;;5056086;28;20457;-73
2022/10/31 03:27:27;;;;;;;64.20;8.50;;;12.30;1.00;;;;;;5055715;28;20472;-73
2022/10/31 03:29:56;;;;;;;71.33;10.60;;;12.30;1.00;;;;;;5054957;28;20462;-73
2022/10/31 03:32:29;;;;;;;64.90;7.67;;;12.30;1.00;;;;;;5056131;28;20859;-73
2022/10/31 03:35:00;;;;;;;67.40;8.70;;;12.20;1.00;;;;;;5055374;28;20840;-74
2022/10/31 03:37:30;;;;;;;68.13;10.03;;;12.20;1.00;;;;;;5055532;28;20479;-73
2022/10/31 03:40:00;;;;;;;65.23;8.20;;;12.20;1.00;;;;;;5054823;28;20451;-74
2022/10/31 03:42:29;;;;;;;66.60;9.20;;;12.20;1.00;;;;;;5055647;28;20813;-73
2022/10/31 03:44:59;;;;;;;65.50;8.10;;;12.20;1.00;;;;;;5055450;28;20454;-74
2022/10/31 03:47:28;;;;;;;63.70;7.90;;;12.20;1.00;;;;;;5055118;28;20485;-73
2022/10/31 03:49:55;;;;;;;63.93;8.27;;;12.10;1.00;;;;;;5054263;28;20465;-73
2022/10/31 03:52:27;;;;;;;66.00;8.97;;;12.00;1.00;;;;;;5054956;28;20490;-73
2022/10/31 03:54:57;;;;;;;69.20;8.40;;;12.10;1.00;;;;;;5055127;28;21031;-73
2022/10/31 03:57:28;;;;;;;66.33;8.20;;;12.00;1.00;;;;;;5055359;28;20800;-73
2022/10/31 04:00:00;;;;;;;65.47;7.63;;;12.00;1.00;;;;;;5054334;28;20829;-73
2022/10/31 04:02:32;;;;;;;66.67;8.80;;;12.10;1.00;;;;;;5055263;28;20486;-73
2022/10/31 04:04:59;;;;;;;66.17;8.50;;;12.10;1.00;;;;;;5054947;28;20449;-73
2022/10/31 04:07:30;;;;;;;67.20;8.73;;;12.10;1.00;;;;;;5054830;28;20480;-73
2022/10/31 04:09:59;;;;;;;69.90;8.30;;;12.00;1.00;;;;;;5054200;28;20468;-73
2022/10/31 04:12:27;;;;;;;68.93;8.70;;;12.10;1.00;;;;;;5054689;28;20499;-73
2022/10/31 04:14:55;;;;;;;64.70;7.70;;;12.10;1.00;;;;;;5054950;28;20467;-73
2022/10/31 04:17:25;;;;;;;63.17;8.27;;;12.10;1.00;;;;;;5054601;28;20481;-73
2022/10/31 04:19:54;;;;;;;64.23;8.40;;;12.10;1.00;;;;;;5053965;28;20797;-73
2022/10/31 04:22:20;;;;;;;65.47;8.13;;;12.10;1.00;;;;;;5054695;28;20455;-73
2022/10/31 04:24:47;;;;;;;71.53;9.87;;;12.10;1.00;;;;;;5054599;28;20451;-74
2022/10/31 04:27:14;;;;;;;67.90;10.10;;;12.00;1.00;;;;;;5054320;28;20469;-73
2022/10/31 04:29:41;;;;;;;66.80;8.73;;;12.00;1.00;;;;;;5053711;28;20446;-73
2022/10/31 04:32:07;;;;;;;70.53;9.10;;;11.90;1.00;;;;;;5054292;28;20481;-74
2022/10/31 04:34:34;;;;;;;66.83;8.20;;;11.90;1.00;;;;;;5054309;28;20474;-73
2022/10/31 04:37:02;;;;;;;67.67;8.37;;;11.90;1.00;;;;;;5054379;28;20558;-73
2022/10/31 04:39:30;;;;;;;65.10;8.00;;;11.90;1.00;;;;;;5054000;28;20451;-73
2022/10/31 04:41:57;;;;;;;68.03;9.57;;;11.80;1.00;;;;;;5054170;28;20451;-73
2022/10/31 04:44:23;;;;;;;69.87;9.30;;;11.80;1.00;;;;;;5054450;28;20825;-72
2022/10/31 04:46:50;;;;;;;66.03;8.40;;;11.80;1.00;;;;;;5054505;28;20482;-73
2022/10/31 04:49:17;;;;;;;66.67;8.77;;;11.80;1.00;;;;;;5053379;28;20454;-73
2022/10/31 04:51:44;;;;;;;66.10;8.90;;;11.80;1.00;;;;;;5053985;28;21058;-73
2022/10/31 04:54:12;;;;;;;68.03;7.93;;;11.70;1.00;;;;;;5054003;28;20451;-73
2022/10/31 04:56:39;;;;;;;64.23;8.17;;;11.70;1.00;;;;;;5054575;28;20487;-73
2022/10/31 04:59:05;;;;;;;71.33;8.37;;;11.70;1.00;;;;;;5053322;28;20454;-73
2022/10/31 05:01:32;;;;;;;64.87;8.53;;;11.70;1.00;;;;;;5053992;28;20978;-74
2022/10/31 05:03:59;;;;;;;67.10;9.23;;;11.70;1.00;;;;;;5053832;28;20982;-73
2022/10/31 05:06:26;;;;;;;68.73;8.13;;;11.70;1.00;;;;;;5053869;28;20453;-73
2022/10/31 05:08:53;;;;;;;66.57;7.90;;;11.70;1.00;;;;;;5052953;28;20457;-74
2022/10/31 05:11:21;;;;;;;72.73;9.27;;;11.60;1.00;;;;;;5053634;28;21015;-74
2022/10/31 05:13:48;;;;;;;67.60;8.53;;;11.60;1.00;;;;;;5053837;28;20452;-73
2022/10/31 05:16:14;;;;;;;66.17;8.97;;;11.60;1.00;;;;;;5053670;28;20450;-73
2022/10/31 05:18:41;;;;;;;66.30;9.40;;;11.60;1.00;;;;;;5052755;28;20955;-74
2022/10/31 05:21:08;;;;;;;67.63;9.00;;;11.60;1.00;;;;;;5053542;28;20447;-73
2022/10/31 05:23:35;;;;;;;63.97;8.40;;;11.60;1.00;;;;;;5053324;28;20463;-74
2022/10/31 05:26:02;;;;;;;71.30;11.20;;;11.60;1.00;;;;;;5053624;28;20451;-73
2022/10/31 05:28:30;;;;;;;67.83;9.67;;;11.60;1.00;;;;;;5053113;28;20475;-73
2022/10/31 05:30:56;;;;;;;66.47;8.10;;;11.50;1.00;;;;;;5052885;28;20457;-73
2022/10/31 05:33:23;;;;;;;66.70;9.17;;;11.50;1.00;;;;;;5053071;28;20460;-74
2022/10/31 05:35:50;;;;;;;66.50;7.57;;;11.50;1.00;;;;;;5053289;28;20465;-73
2022/10/31 05:38:17;;;;;;;68.87;9.20;;;11.50;1.00;;;;;;5052999;28;20473;-73
2022/10/31 05:40:43;;;;;;;65.53;8.10;;;11.40;1.00;;;;;;5052124;28;20484;-73
2022/10/31 05:43:10;;;;;;;64.90;7.60;;;11.20;1.00;;;;;;5053361;28;20454;-73
2022/10/31 05:45:38;;;;;;;67.53;9.00;;;11.20;1.00;;;;;;5053204;28;21074;-73
2022/10/31 05:48:06;;;;;;;65.80;8.33;;;11.20;1.00;;;;;;5052852;28;20485;-73
2022/10/31 05:50:33;;;;;;;68.77;9.00;;;11.30;1.00;;;;;;5051839;28;20461;-73
2022/10/31 05:53:01;;;;;;;64.67;8.23;;;11.30;1.00;;;;;;5053004;28;20949;-74
2022/10/31 05:55:29;;;;;;;65.47;7.93;;;11.30;1.00;;;;;;5052833;28;20961;-73
2022/10/31 05:57:56;;;;;;;66.00;7.80;;;11.40;1.00;;;;;;5052715;28;20471;-74
2022/10/31 06:00:24;;;;;;;69.07;8.50;;;11.40;1.00;;;;;;5052134;28;20458;-73
2022/10/31 06:02:58;;;;;;;64.37;8.00;;;11.30;1.00;;;;;;5052646;28;20463;-73
2022/10/31 06:05:25;;;;;;;66.47;8.00;;;11.30;1.00;;;;;;5052647;28;20454;-73
2022/10/31 06:07:52;;;;;;;68.10;8.00;;;11.20;1.00;;;;;;5052499;28;20482;-74
2022/10/31 06:10:20;;;;;;;66.17;8.87;;;11.20;1.00;;;;;;5051884;28;20940;-73
2022/10/31 06:12:47;;;;;;;66.27;8.50;;;11.20;1.00;;;;;;5052533;28;20539;-73
2022/10/31 06:15:14;;;;;;;66.80;9.60;;;11.30;1.00;;;;;;5052449;28;20454;-73
2022/10/31 06:17:41;;;;;;;66.10;8.77;;;11.40;1.00;;;;;;5052130;28;21017;-73
2022/10/31 06:20:11;;;;;;;66.87;8.20;;;11.40;1.00;;;;;;5051751;28;20458;-73
2022/10/31 06:22:37;;;;;;;67.10;7.97;;;11.40;1.00;;;;;;5052485;28;20446;-73
2022/10/31 06:25:05;;;;;;;68.60;7.90;;;11.40;1.00;;;;;;5052606;28;20625;-73
2022/10/31 06:27:31;;;;;;;64.80;8.30;;;11.50;1.00;;;;;;5052450;28;20478;-73
2022/10/31 06:29:58;;;;;;;67.03;8.70;;;11.50;1.00;;;;;;5051516;28;20451;-73
2022/10/31 06:32:25;;;;;;;68.80;8.40;;;11.60;1.00;;;;;;5052280;28;20497;-73
2022/10/31 06:34:52;;;;;;;71.53;8.67;;;11.60;1.00;;;;;;5051906;28;20459;-73
2022/10/31 06:37:20;;;;;;;65.40;9.00;;;11.70;1.00;;;;;;5052311;28;21025;-73
2022/10/31 06:39:47;;;;;;;67.47;9.00;;;11.70;1.00;;;;;;5051460;28;20454;-73
2022/10/31 06:42:15;;;;;;;64.03;8.27;;;11.70;1.00;;;;;;5052045;28;20457;-73
2022/10/31 06:44:42;;;;;;;67.07;7.47;;;11.70;1.00;;;;;;5052074;28;20456;-73
2022/10/31 06:47:09;;;;;;;65.33;8.23;;;11.80;1.00;;;;;;5052124;28;20914;-73
2022/10/31 06:49:36;;;;;;;68.97;8.83;;;11.90;1.00;;;;;;5051557;28;20448;-73
2022/10/31 06:52:03;;;;;;;66.13;9.00;;;11.90;1.00;;;;;;5051319;28;20482;-73
2022/10/31 06:54:31;;;;;;;67.50;8.57;;;12.00;1.00;;;;;;5052000;28;20451;-73
2022/10/31 06:56:58;;;;;;;95.87;14.70;;;11.90;1.00;;;;;;5051880;28;20480;-73
2022/10/31 06:59:25;;;;;;;73.73;9.50;;;11.80;1.00;;;;;;5051023;28;20542;-73
2022/10/31 07:01:52;;;;;;;66.40;8.30;;;11.70;1.00;;;;;;5052040;28;20870;-74
2022/10/31 07:04:18;;;;;;;68.30;9.13;;;11.70;1.00;;;;;;5051838;28;20460;-73
2022/10/31 07:06:45;;;;;;;67.60;8.40;;;11.60;1.00;;;;;;5052103;28;20471;-73
2022/10/31 07:09:12;;;;;;;67.27;8.53;;;11.60;1.00;;;;;;5051310;28;20460;-74
2022/10/31 07:11:40;;;;;;;69.90;10.17;;;11.60;1.00;;;;;;5051725;28;20496;-73
2022/10/31 07:14:07;;;;;;;67.40;9.33;;;11.40;1.00;;;;;;5051760;28;20782;-73
2022/10/31 07:16:34;;;;;;;64.20;7.93;;;11.50;1.00;;;;;;5051853;28;20475;-74
2022/10/31 07:19:01;;;;;;;66.00;8.83;;;11.60;1.00;;;;;;5051163;28;20459;-74
2022/10/31 07:21:27;;;;;;;68.53;8.83;;;11.60;1.00;;;;;;5051908;28;20845;-73
2022/10/31 07:23:54;;;;;;;67.50;8.77;;;11.60;1.00;;;;;;5051665;28;20459;-73
2022/10/31 07:26:21;;;;;;;66.43;8.20;;;11.80;1.00;;;;;;5051734;28;20451;-73
2022/10/31 07:28:49;;;;;;;69.60;8.53;;;12.10;1.00;;;;;;5050909;28;20749;-73
2022/10/31 07:31:16;;;;;;;66.30;8.80;;;12.30;1.00;;;;;;5051678;28;20452;-73
2022/10/31 07:33:43;;;;;;;68.47;9.17;;;12.30;1.00;;;;;;5051883;28;20467;-74
2022/10/31 07:36:09;;;;;;;67.77;9.10;;;12.50;1.00;;;;;;5051513;28;20458;-74
2022/10/31 07:38:36;;;;;;;65.70;7.73;;;12.60;1.00;;;;;;5050893;28;20452;-74
2022/10/31 07:41:03;;;;;;;69.63;8.40;;;12.80;1.00;;;;;;5051469;28;20450;-73
2022/10/31 07:43:30;;;;;;;67.23;9.43;;;13.00;1.00;;;;;;5051958;28;20456;-73
2022/10/31 07:45:58;;;;;;;66.80;8.30;;;13.10;1.00;;;;;;5051560;28;20463;-74
2022/10/31 07:48:25;;;;;;;69.90;9.07;;;13.10;1.00;;;;;;5051309;28;20997;-73
2022/10/31 07:50:51;;;;;;;68.97;9.00;;;13.30;1.00;;;;;;5050980;28;20823;-73
2022/10/31 07:53:18;;;;;;;64.33;8.37;;;13.50;1.00;;;;;;5051166;28;20492;-73
2022/10/31 07:55:45;;;;;;;78.07;9.10;;;13.60;1.00;;;;;;5051838;28;20459;-74
2022/10/31 07:58:14;;;;;;;66.63;8.70;;;13.80;1.00;;;;;;5051428;28;20843;-73
2022/10/31 08:00:42;;;;;;;65.50;8.17;;;14.00;1.00;;;;;;5050581;28;20447;-73
2022/10/31 08:03:12;;;;;;;63.50;8.50;;;14.10;1.00;;;;;;5052859;28;20458;-73
2022/10/31 08:05:40;;;;;;;68.20;8.03;;;14.30;1.00;;;;;;5054884;28;20460;-73
2022/10/31 08:08:08;;;;;;;66.03;8.50;;;14.50;1.00;;;;;;5054612;28;20472;-74
2022/10/31 08:10:35;;;;;;;69.30;8.80;;;14.50;1.00;;;;;;5054381;28;20836;-73
2022/10/31 08:13:05;;;;;;;65.60;8.50;;;14.70;1.00;;;;;;5054824;28;20495;-73
2022/10/31 08:15:33;;;;;;;71.80;8.87;;;14.90;1.00;;;;;;5054836;28;20463;-73
2022/10/31 08:18:01;;;;;;;67.93;8.50;;;15.10;1.00;;;;;;5054549;28;20483;-73
2022/10/31 08:20:30;;;;;;;68.90;8.83;;;15.30;1.00;;;;;;5053865;28;20853;-74
2022/10/31 08:22:57;;;;;;;71.10;8.90;;;15.40;1.00;;;;;;5054557;28;20444;-74
2022/10/31 08:25:25;;;;;;;66.20;8.40;;;15.50;1.00;;;;;;5054733;28;20455;-74
2022/10/31 08:27:52;;;;;;;63.60;8.33;;;15.70;1.00;;;;;;5054562;28;20468;-74
2022/10/31 08:30:20;;;;;;;69.00;9.10;;;15.80;1.00;;;;;;5053707;28;20452;-73
2022/10/31 08:32:47;;;;;;;64.20;8.87;;;16.00;1.00;;;;;;5054359;28;20855;-73
2022/10/31 08:35:14;;;;;;;67.83;8.63;;;16.20;1.00;;;;;;5054393;28;20471;-74
2022/10/31 08:37:42;;;;;;;64.53;7.97;;;16.30;1.00;;;;;;5054267;28;20981;-73
2022/10/31 08:40:11;;;;;;;68.03;8.60;;;16.50;1.00;;;;;;5053691;28;21001;-74
2022/10/31 08:42:37;;;;;;;63.93;8.10;;;16.60;1.00;;;;;;5054379;28;20448;-73
2022/10/31 08:45:05;;;;;;;64.30;8.37;;;16.80;1.00;;;;;;5054657;28;20913;-74
2022/10/31 08:47:32;;;;;;;64.93;8.83;;;17.00;1.00;;;;;;5054037;28;20472;-73
2022/10/31 08:49:58;;;;;;;65.13;8.80;;;17.10;1.00;;;;;;5053238;28;20542;-74
2022/10/31 08:52:26;;;;;;;66.97;8.53;;;17.30;1.00;;;;;;5054158;28;20484;-73
2022/10/31 08:54:54;;;;;;;67.07;8.90;;;17.30;1.00;;;;;;5054083;28;21017;-74
2022/10/31 08:57:21;;;;;;;63.63;8.00;;;17.40;1.00;;;;;;5053990;28;20469;-74
2022/10/31 08:59:47;;;;;;;65.60;7.77;;;17.40;1.00;;;;;;5053147;28;20449;-74
2022/10/31 09:02:14;;;;;;;67.30;9.13;;;17.50;1.00;;;;;;5053795;28;20541;-73
2022/10/31 09:04:41;;;;;;;63.80;7.73;;;17.60;1.00;;;;;;5054096;28;20448;-74
2022/10/31 09:07:08;;;;;;;63.63;7.87;;;17.60;1.00;;;;;;5053698;28;20479;-73
2022/10/31 09:09:35;;;;;;;61.87;7.70;;;17.70;1.00;;;;;;5053018;28;20452;-74
2022/10/31 09:12:03;;;;;;;64.30;7.97;;;17.80;1.00;;;;;;5053669;28;20449;-74
2022/10/31 09:14:30;;;;;;;71.80;9.20;;;17.70;1.00;;;;;;5052726;28;20460;-74
2022/10/31 09:16:56;;;;;;;64.33;7.83;;;17.20;1.00;;;;;;5053485;28;20469;-73
2022/10/31 09:19:23;;;;;;;63.80;8.83;;;17.30;1.00;;;;;;5053021;28;20843;-74
2022/10/31 09:21:54;;;;;;;65.37;9.10;;;17.70;1.00;;;;;;5053656;28;20832;-73
2022/10/31 09:24:21;;;;;;;72.10;8.40;;;17.40;1.00;;;;;;5053565;28;20506;-74
2022/10/31 09:26:48;;;;;;;70.07;9.10;;;17.10;1.00;;;;;;5053365;28;20465;-74
2022/10/31 09:29:16;;;;;;;68.87;8.30;;;17.00;1.00;;;;;;5052641;28;20882;-73
2022/10/31 09:31:43;;;;;;;62.97;8.10;;;17.00;1.00;;;;;;5053593;28;20452;-74
2022/10/31 09:34:10;;;;;;;71.17;9.07;;;17.20;1.00;;;;;;5053201;28;20488;-73
2022/10/31 09:36:37;;;;;;;64.57;8.07;;;17.70;1.00;;;;;;5053293;28;20856;-74
2022/10/31 09:39:04;;;;;;;63.63;8.27;;;18.10;1.00;;;;;;5052622;28;20448;-74
2022/10/31 09:41:49;;;;;;;68.40;9.07;;;18.70;1.00;;;;;;5053178;28;20467;-74
2022/10/31 09:44:24;;;;;;;73.67;8.30;;;18.80;1.00;;;;;;5053430;28;20804;-74
2022/10/31 09:46:58;;;;;;;70.33;8.53;;;19.00;1.00;;;;;;5053125;28;20479;-73
2022/10/31 09:49:37;;;;;;;68.40;9.43;;;18.90;1.00;;;;;;5052487;28;20823;-74
2022/10/31 09:52:10;;;;;;;74.50;10.37;;;18.30;1.00;;;;;;5052760;28;20509;-74
2022/10/31 09:54:42;;;;;;;70.00;10.13;;;18.50;1.00;;;;;;5053117;28;20452;-74
2022/10/31 09:57:13;;;;;;;69.87;11.30;;;18.60;1.00;;;;;;5053161;28;20472;-74
2022/10/31 09:59:44;;;;;;;67.07;11.20;;;19.00;1.00;;;;;;5052380;28;20452;-75
2022/10/31 10:02:17;;;;;;;67.00;10.50;;;19.00;1.00;;;;;;5052757;28;20452;-74
2022/10/31 10:04:49;;;;;;;68.13;9.77;;;19.70;1.00;;;;;;5052636;28;20944;-74
2022/10/31 10:07:26;;;;;;;66.70;9.00;;;20.20;1.00;;;;;;5052804;28;20473;-74
2022/10/31 10:09:53;;;;;;;66.40;10.30;;;20.70;1.00;;;;;;5052074;28;20462;-74
2022/10/31 10:12:45;;;;;;;73.03;10.40;;;20.80;1.00;;;;;;5052398;28;20448;-74
2022/10/31 10:15:37;;;;;;;65.40;10.30;;;20.70;1.00;;;;;;5052650;28;20457;-74
2022/10/31 10:18:13;;;;;;;70.33;9.73;;;21.00;1.00;;;;;;5052300;28;20465;-74
2022/10/31 10:20:49;;;;;;;70.83;10.10;;;21.50;1.00;;;;;;5051780;28;20978;-74
2022/10/31 10:23:32;;;;;;;68.80;8.83;;;22.30;1.00;;;;;;5052329;28;20444;-74
2022/10/31 10:26:04;;;;;;;67.80;9.00;;;23.10;1.00;;;;;;5052442;28;20440;-74
2022/10/31 10:28:38;;;;;;;65.20;9.43;;;23.90;99.90;;;;;;5051816;28;20487;-76
2022/10/31 10:31:10;;;;;;;64.40;8.00;;;23.40;99.90;;;;;;5052393;28;20467;-74
2022/10/31 10:33:41;;;;;;;65.07;8.70;;;23.00;99.90;;;;;;5052117;28;20488;-74
2022/10/31 10:36:14;;;;;;;67.07;8.43;;;23.40;99.90;;;;;;5052124;28;20466;-74
2022/10/31 10:38:51;;;;;;;64.47;7.40;;;23.20;99.90;;;;;;5051406;28;20455;-74
2022/10/31 10:41:20;;;;;;;66.17;7.47;;;23.30;99.90;;;;;;5052146;28;20448;-74
2022/10/31 10:43:49;;;;;;;67.37;7.73;;;23.50;99.90;;;;;;5052030;28;20440;-72
2022/10/31 10:49:18;;;;;;;66.57;8.27;;;24.50;99.90;;;;;;5051231;28;20993;-73
2022/10/31 10:51:52;;;;;;;68.20;7.73;;;24.40;99.90;;;;;;5051643;28;20505;-74
2022/10/31 10:54:57;;;;;;;64.03;7.20;;;24.50;99.90;;;;;;5051817;28;20864;-74
2022/10/31 10:57:56;;;;;;;64.87;7.77;;;24.30;99.90;;;;;;5050474;28;20558;-73
2022/10/31 11:00:24;;;;;;;65.97;8.20;;;24.10;99.90;;;;;;5015263;28;20464;-73
2022/10/31 11:02:53;;;;;;;65.33;8.20;;;23.70;99.90;;;;;;5051729;28;20436;-73
2022/10/31 11:05:25;;;;;;;65.30;7.63;;;23.60;99.90;;;;;;5051570;28;20448;-73
2022/10/31 11:07:52;;;;;;;65.57;8.50;;;23.40;99.90;;;;;;5051652;28;20460;-74
2022/10/31 11:10:19;;;;;;;64.30;7.70;;;23.20;99.90;;;;;;5051141;28;20444;-73
2022/10/31 11:13:00;;;;;;;64.77;7.70;;;23.00;99.90;;;;;;5051634;28;20487;-74
2022/10/31 11:15:29;;;;;;;63.57;7.53;;;23.20;99.90;;;;;;5051623;28;20462;-73
2022/10/31 11:17:58;;;;;;;64.47;7.57;;;23.30;99.90;;;;;;5051714;28;20472;-73
2022/10/31 11:20:31;;;;;;;65.97;7.73;;;23.50;99.90;;;;;;5051475;28;20453;-73
2022/10/31 11:23:18;;;;;;;62.83;8.10;;;23.50;99.90;;;;;;5051766;28;20938;-73
2022/10/31 11:25:54;;;;;;;63.80;7.00;;;23.70;99.90;;;;;;5051458;28;20828;-73
2022/10/31 11:28:20;;;;;;;64.60;8.03;;;24.00;99.90;;;;;;5051508;28;20482;-74
2022/10/31 11:30:49;;;;;;;69.83;8.23;;;24.30;99.90;;;;;;5050850;28;20456;-73
2022/10/31 11:33:21;;;;;;;70.50;6.83;;;24.30;99.90;;;;;;5051465;28;20574;-73
2022/10/31 11:35:49;;;;;;;67.63;8.00;;;25.30;99.90;;;;;;5051418;28;20458;-74
2022/10/31 11:38:20;;;;;;;65.70;7.40;;;26.40;99.90;;;;;;5053277;28;20543;-73
2022/10/31 11:40:55;;;;;;;71.23;7.37;;;26.80;99.90;;;;;;5054703;28;20456;-73
2022/10/31 11:43:23;;;;;;;63.50;7.67;;;27.30;99.90;;;;;;5055499;28;20509;-73
2022/10/31 11:45:50;;;;;;;64.40;7.50;;;27.70;99.90;;;;;;5055505;28;20444;-73
2022/10/31 11:48:20;;;;;;;69.67;7.00;;;27.80;99.90;;;;;;5055184;28;20472;-75
2022/10/31 11:50:51;;;;;;;66.60;7.43;;;27.70;99.90;;;;;;5054624;28;20480;-74
2022/10/31 11:53:20;;;;;;;62.67;6.80;;;27.00;99.90;;;;;;5055030;28;20503;-73
2022/10/31 11:55:48;;;;;;;65.60;7.70;;;26.70;99.90;;;;;;5055298;28;20844;-74
2022/10/31 11:58:23;;;;;;;66.60;7.17;;;26.90;99.90;;;;;;5054980;28;21000;-73
2022/10/31 12:00:51;;;;;;;68.33;7.53;;;27.40;99.90;;;;;;5054411;28;20865;-74
2022/10/31 12:03:30;;;;;;;67.67;7.17;;;27.80;99.90;;;;;;5054951;28;20444;-74
2022/10/31 12:06:02;;;;;;;63.67;7.13;;;28.50;99.90;;;;;;5055215;28;20496;-75
2022/10/31 12:08:32;;;;;;;64.20;6.73;;;28.70;99.90;;;;;;5054667;28;20470;-76
2022/10/31 12:11:09;;;;;;;64.93;8.03;;;28.60;99.90;;;;;;5054738;28;20936;-73
2022/10/31 12:13:43;;;;;;;62.87;6.80;;;28.00;99.90;;;;;;5054847;28;20491;-74
2022/10/31 12:16:16;;;;;;;67.90;7.47;;;27.40;99.90;;;;;;5054955;28;20830;-74
2022/10/31 12:19:00;;;;;;;67.00;6.97;;;27.10;99.90;;;;;;5053971;28;20458;-73
2022/10/31 12:21:50;;;;;;;67.80;7.20;;;26.80;99.90;;;;;;5054829;28;20466;-73
2022/10/31 12:24:30;;;;;;;68.73;7.50;;;26.60;99.90;;;;;;5054536;28;20444;-73
2022/10/31 12:27:06;;;;;;;63.67;7.10;;;26.60;99.90;;;;;;5054692;28;20478;-74
2022/10/31 12:29:44;;;;;;;63.23;7.03;;;26.90;99.90;;;;;;5053943;28;20466;-74
2022/10/31 12:32:22;;;;;;;62.13;7.30;;;27.50;99.90;;;;;;5054556;28;20448;-75
2022/10/31 12:35:26;;;;;;;63.93;6.50;;;28.80;99.90;;;;;;5054069;28;21000;-74
2022/10/31 12:38:11;;;;;;;64.30;7.17;;;30.30;99.90;;;;;;5050855;28;21014;-74
2022/10/31 12:41:00;;;;;;;68.00;6.57;;;30.10;99.90;;;;;;5053774;28;20506;-74
2022/10/31 12:43:38;;;;;;;65.43;6.70;;;29.10;99.90;;;;;;5054535;28;20944;-74
2022/10/31 12:46:13;;;;;;;66.63;7.07;;;28.20;99.90;;;;;;5054324;28;20451;-74
2022/10/31 12:49:07;;;;;;;66.37;7.57;;;27.50;99.90;;;;;;5052934;28;20559;-73
2022/10/31 12:51:44;;;;;;;69.53;7.30;;;27.10;99.90;;;;;;5054086;28;20437;-74
2022/10/31 12:54:30;;;;;;;66.37;7.87;;;26.70;99.90;;;;;;5054150;28;20853;-73
2022/10/31 12:57:04;;;;;;;63.83;7.27;;;26.40;99.90;;;;;;5054053;28;20550;-74
2022/10/31 12:59:36;;;;;;;67.43;7.60;;;26.10;99.90;;;;;;5053258;28;20802;-75
2022/10/31 13:02:10;;;;;;;65.47;7.90;;;25.80;99.90;;;;;;5054302;28;20734;-73